sensor_id;sensor_type;location;lat;lon;timestamp;P1;durP1;ratioP1;P2;durP2;ratioP2
21743;SDS011;11034;48.556;9.342;2023-08-24T00:01:07;5.50;;;4.50;;
21743;SDS011;11034;48.556;9.342;2023-08-24T00:03:40;5.47;;;4.38;;
21743;SDS011;11034;48.556;9.342;2023-08-24T00:06:08;6.90;;;4.70;;
21743;SDS011;11034;48.556;9.342;2023-08-24T00:08:39;6.72;;;4.40;;
21743;SDS011;11034;48.556;9.342;2023-08-24T00:11:07;5.22;;;4.50;;
21743;SDS011;11034;48.556;9.342;2023-08-24T00:13:41;6.00;;;4.18;;
21743;SDS011;11034;48.556;9.342;2023-08-24T00:16:14;7.65;;;4.28;;
21743;SDS011;11034;48.556;9.342;2023-08-24T00:18:42;7.47;;;4.43;;
21743;SDS011;11034;48.556;9.342;2023-08-24T00:21:13;6.60;;;4.75;;
21743;SDS011;11034;48.556;9.342;2023-08-24T00:23:43;7.63;;;4.32;;
21743;SDS011;11034;48.556;9.342;2023-08-24T00:26:11;8.88;;;4.45;;
21743;SDS011;11034;48.556;9.342;2023-08-24T00:28:39;6.10;;;4.15;;
21743;SDS011;11034;48.556;9.342;2023-08-24T00:31:14;8.68;;;4.60;;
21743;SDS011;11034;48.556;9.342;2023-08-24T00:33:43;7.93;;;4.40;;
21743;SDS011;11034;48.556;9.342;2023-08-24T00:36:12;8.23;;;5.07;;
21743;SDS011;11034;48.556;9.342;2023-08-24T00:38:40;7.68;;;4.78;;
21743;SDS011;11034;48.556;9.342;2023-08-24T00:41:09;5.53;;;4.55;;
21743;SDS011;11034;48.556;9.342;2023-08-24T00:43:37;8.13;;;4.57;;
21743;SDS011;11034;48.556;9.342;2023-08-24T00:46:05;7.70;;;4.80;;
21743;SDS011;11034;48.556;9.342;2023-08-24T00:48:37;5.20;;;4.00;;
21743;SDS011;11034;48.556;9.342;2023-08-24T00:51:05;10.20;;;4.80;;
21743;SDS011;11034;48.556;9.342;2023-08-24T00:53:34;5.97;;;4.00;;
21743;SDS011;11034;48.556;9.342;2023-08-24T00:56:04;5.10;;;4.22;;
21743;SDS011;11034;48.556;9.342;2023-08-24T00:58:35;5.43;;;4.70;;
21743;SDS011;11034;48.556;9.342;2023-08-24T01:01:06;6.18;;;4.32;;
21743;SDS011;11034;48.556;9.342;2023-08-24T01:03:34;6.18;;;4.78;;
21743;SDS011;11034;48.556;9.342;2023-08-24T01:06:04;6.43;;;4.10;;
21743;SDS011;11034;48.556;9.342;2023-08-24T01:08:33;5.75;;;4.20;;
21743;SDS011;11034;48.556;9.342;2023-08-24T01:11:02;5.72;;;4.28;;
21743;SDS011;11034;48.556;9.342;2023-08-24T01:13:42;6.63;;;4.28;;
21743;SDS011;11034;48.556;9.342;2023-08-24T01:16:16;5.90;;;4.30;;
21743;SDS011;11034;48.556;9.342;2023-08-24T01:18:48;8.90;;;4.80;;
21743;SDS011;11034;48.556;9.342;2023-08-24T01:21:18;6.07;;;3.85;;
21743;SDS011;11034;48.556;9.342;2023-08-24T01:23:49;7.95;;;4.38;;
21743;SDS011;11034;48.556;9.342;2023-08-24T01:26:26;7.00;;;4.35;;
21743;SDS011;11034;48.556;9.342;2023-08-24T01:28:56;8.43;;;4.30;;
21743;SDS011;11034;48.556;9.342;2023-08-24T01:31:25;5.95;;;4.50;;
21743;SDS011;11034;48.556;9.342;2023-08-24T01:33:54;7.25;;;3.97;;
21743;SDS011;11034;48.556;9.342;2023-08-24T01:36:23;6.35;;;4.43;;
21743;SDS011;11034;48.556;9.342;2023-08-24T01:38:53;6.03;;;4.35;;
21743;SDS011;11034;48.556;9.342;2023-08-24T01:41:28;5.68;;;4.60;;
21743;SDS011;11034;48.556;9.342;2023-08-24T01:44:03;6.97;;;4.97;;
21743;SDS011;11034;48.556;9.342;2023-08-24T01:46:34;7.00;;;4.95;;
21743;SDS011;11034;48.556;9.342;2023-08-24T01:49:03;11.98;;;4.70;;
21743;SDS011;11034;48.556;9.342;2023-08-24T01:51:33;7.18;;;4.70;;
21743;SDS011;11034;48.556;9.342;2023-08-24T01:54:03;9.60;;;4.93;;
21743;SDS011;11034;48.556;9.342;2023-08-24T01:56:33;7.07;;;4.80;;
21743;SDS011;11034;48.556;9.342;2023-08-24T01:59:01;7.65;;;4.95;;
21743;SDS011;11034;48.556;9.342;2023-08-24T02:01:29;8.93;;;4.60;;
21743;SDS011;11034;48.556;9.342;2023-08-24T02:03:57;7.10;;;4.57;;
21743;SDS011;11034;48.556;9.342;2023-08-24T02:06:26;6.95;;;4.78;;
21743;SDS011;11034;48.556;9.342;2023-08-24T02:08:54;6.25;;;4.82;;
21743;SDS011;11034;48.556;9.342;2023-08-24T02:11:22;6.20;;;5.13;;
21743;SDS011;11034;48.556;9.342;2023-08-24T02:13:52;7.78;;;4.85;;
21743;SDS011;11034;48.556;9.342;2023-08-24T02:16:20;8.82;;;5.40;;
21743;SDS011;11034;48.556;9.342;2023-08-24T02:18:48;10.85;;;5.60;;
21743;SDS011;11034;48.556;9.342;2023-08-24T02:21:16;9.13;;;5.32;;
21743;SDS011;11034;48.556;9.342;2023-08-24T02:23:44;9.90;;;5.70;;
21743;SDS011;11034;48.556;9.342;2023-08-24T02:26:12;7.75;;;5.63;;
21743;SDS011;11034;48.556;9.342;2023-08-24T02:28:40;5.70;;;4.93;;
21743;SDS011;11034;48.556;9.342;2023-08-24T02:31:10;9.68;;;5.40;;
21743;SDS011;11034;48.556;9.342;2023-08-24T02:33:38;9.43;;;5.38;;
21743;SDS011;11034;48.556;9.342;2023-08-24T02:36:06;7.65;;;5.65;;
21743;SDS011;11034;48.556;9.342;2023-08-24T02:38:34;6.93;;;5.30;;
21743;SDS011;11034;48.556;9.342;2023-08-24T02:41:02;9.13;;;5.50;;
21743;SDS011;11034;48.556;9.342;2023-08-24T02:43:31;9.90;;;5.60;;
21743;SDS011;11034;48.556;9.342;2023-08-24T02:46:00;7.30;;;6.00;;
21743;SDS011;11034;48.556;9.342;2023-08-24T02:48:31;8.45;;;6.03;;
21743;SDS011;11034;48.556;9.342;2023-08-24T02:51:01;8.05;;;5.60;;
21743;SDS011;11034;48.556;9.342;2023-08-24T02:53:30;8.57;;;6.00;;
21743;SDS011;11034;48.556;9.342;2023-08-24T02:55:58;8.45;;;5.70;;
21743;SDS011;11034;48.556;9.342;2023-08-24T02:58:26;10.95;;;6.45;;
21743;SDS011;11034;48.556;9.342;2023-08-24T03:00:55;8.43;;;6.25;;
21743;SDS011;11034;48.556;9.342;2023-08-24T03:03:24;12.27;;;7.38;;
21743;SDS011;11034;48.556;9.342;2023-08-24T03:05:57;7.45;;;5.85;;
21743;SDS011;11034;48.556;9.342;2023-08-24T03:08:26;11.32;;;6.15;;
21743;SDS011;11034;48.556;9.342;2023-08-24T03:10:54;8.88;;;6.38;;
21743;SDS011;11034;48.556;9.342;2023-08-24T03:13:23;10.63;;;7.22;;
21743;SDS011;11034;48.556;9.342;2023-08-24T03:15:51;7.97;;;6.78;;
21743;SDS011;11034;48.556;9.342;2023-08-24T03:18:19;8.27;;;5.95;;
21743;SDS011;11034;48.556;9.342;2023-08-24T03:20:48;9.50;;;6.07;;
21743;SDS011;11034;48.556;9.342;2023-08-24T03:23:18;9.15;;;6.68;;
21743;SDS011;11034;48.556;9.342;2023-08-24T03:25:46;9.85;;;6.47;;
21743;SDS011;11034;48.556;9.342;2023-08-24T03:28:14;7.53;;;6.38;;
21743;SDS011;11034;48.556;9.342;2023-08-24T03:30:45;8.15;;;6.20;;
21743;SDS011;11034;48.556;9.342;2023-08-24T03:33:14;7.30;;;5.97;;
21743;SDS011;11034;48.556;9.342;2023-08-24T03:35:43;7.57;;;6.78;;
21743;SDS011;11034;48.556;9.342;2023-08-24T03:38:11;9.05;;;6.18;;
21743;SDS011;11034;48.556;9.342;2023-08-24T03:40:41;8.05;;;5.63;;
21743;SDS011;11034;48.556;9.342;2023-08-24T03:43:09;6.90;;;5.90;;
21743;SDS011;11034;48.556;9.342;2023-08-24T03:45:37;8.90;;;6.13;;
21743;SDS011;11034;48.556;9.342;2023-08-24T03:48:05;9.02;;;5.80;;
21743;SDS011;11034;48.556;9.342;2023-08-24T03:50:34;10.07;;;6.20;;
21743;SDS011;11034;48.556;9.342;2023-08-24T03:53:02;9.88;;;6.20;;
21743;SDS011;11034;48.556;9.342;2023-08-24T03:55:31;8.85;;;6.50;;
21743;SDS011;11034;48.556;9.342;2023-08-24T03:58:02;8.23;;;6.93;;
21743;SDS011;11034;48.556;9.342;2023-08-24T04:00:30;11.10;;;6.68;;
21743;SDS011;11034;48.556;9.342;2023-08-24T04:02:58;11.73;;;6.75;;
21743;SDS011;11034;48.556;9.342;2023-08-24T04:05:27;8.73;;;6.85;;
21743;SDS011;11034;48.556;9.342;2023-08-24T04:07:55;12.02;;;7.45;;
21743;SDS011;11034;48.556;9.342;2023-08-24T04:10:26;8.90;;;6.82;;
21743;SDS011;11034;48.556;9.342;2023-08-24T04:12:55;10.93;;;7.20;;
21743;SDS011;11034;48.556;9.342;2023-08-24T04:15:24;7.78;;;6.63;;
21743;SDS011;11034;48.556;9.342;2023-08-24T04:17:53;11.63;;;6.97;;
21743;SDS011;11034;48.556;9.342;2023-08-24T04:20:21;8.40;;;6.10;;
21743;SDS011;11034;48.556;9.342;2023-08-24T04:22:49;7.32;;;5.90;;
21743;SDS011;11034;48.556;9.342;2023-08-24T04:25:17;9.85;;;5.82;;
21743;SDS011;11034;48.556;9.342;2023-08-24T04:27:45;8.93;;;5.38;;
21743;SDS011;11034;48.556;9.342;2023-08-24T04:30:14;9.15;;;5.28;;
21743;SDS011;11034;48.556;9.342;2023-08-24T04:32:44;8.60;;;5.45;;
21743;SDS011;11034;48.556;9.342;2023-08-24T04:35:12;5.80;;;5.03;;
21743;SDS011;11034;48.556;9.342;2023-08-24T04:37:40;8.23;;;4.95;;
21743;SDS011;11034;48.556;9.342;2023-08-24T04:40:08;7.43;;;5.20;;
21743;SDS011;11034;48.556;9.342;2023-08-24T04:42:37;9.65;;;5.18;;
21743;SDS011;11034;48.556;9.342;2023-08-24T04:45:06;10.77;;;6.80;;
21743;SDS011;11034;48.556;9.342;2023-08-24T04:47:36;11.90;;;7.28;;
21743;SDS011;11034;48.556;9.342;2023-08-24T04:50:06;8.45;;;7.15;;
21743;SDS011;11034;48.556;9.342;2023-08-24T04:52:35;8.23;;;5.97;;
21743;SDS011;11034;48.556;9.342;2023-08-24T04:55:03;9.82;;;5.93;;
21743;SDS011;11034;48.556;9.342;2023-08-24T04:57:31;6.45;;;5.00;;
21743;SDS011;11034;48.556;9.342;2023-08-24T05:00:00;8.02;;;4.75;;
21743;SDS011;11034;48.556;9.342;2023-08-24T05:02:32;6.43;;;4.25;;
21743;SDS011;11034;48.556;9.342;2023-08-24T05:05:00;8.30;;;5.22;;
21743;SDS011;11034;48.556;9.342;2023-08-24T05:07:29;11.18;;;4.65;;
21743;SDS011;11034;48.556;9.342;2023-08-24T05:09:58;7.03;;;5.00;;
21743;SDS011;11034;48.556;9.342;2023-08-24T05:12:26;6.38;;;3.95;;
21743;SDS011;11034;48.556;9.342;2023-08-24T05:14:55;8.20;;;4.22;;
21743;SDS011;11034;48.556;9.342;2023-08-24T05:17:24;8.32;;;4.25;;
21743;SDS011;11034;48.556;9.342;2023-08-24T05:19:53;6.95;;;4.80;;
21743;SDS011;11034;48.556;9.342;2023-08-24T05:22:21;7.55;;;4.70;;
21743;SDS011;11034;48.556;9.342;2023-08-24T05:24:51;11.75;;;4.85;;
21743;SDS011;11034;48.556;9.342;2023-08-24T05:27:19;9.10;;;5.38;;
21743;SDS011;11034;48.556;9.342;2023-08-24T05:29:47;11.88;;;6.40;;
21743;SDS011;11034;48.556;9.342;2023-08-24T05:32:15;9.60;;;6.28;;
21743;SDS011;11034;48.556;9.342;2023-08-24T05:34:44;10.00;;;6.93;;
21743;SDS011;11034;48.556;9.342;2023-08-24T05:37:13;13.30;;;7.10;;
21743;SDS011;11034;48.556;9.342;2023-08-24T05:39:43;9.00;;;6.20;;
21743;SDS011;11034;48.556;9.342;2023-08-24T05:42:12;11.40;;;7.18;;
21743;SDS011;11034;48.556;9.342;2023-08-24T05:44:40;9.82;;;5.65;;
21743;SDS011;11034;48.556;9.342;2023-08-24T05:58:38;7.68;;;5.47;;
21743;SDS011;11034;48.556;9.342;2023-08-24T06:17:29;6.22;;;4.97;;
21743;SDS011;11034;48.556;9.342;2023-08-24T06:20:56;7.47;;;5.22;;
21743;SDS011;11034;48.556;9.342;2023-08-24T06:23:44;7.13;;;5.25;;
21743;SDS011;11034;48.556;9.342;2023-08-24T06:26:56;8.82;;;4.88;;
21743;SDS011;11034;48.556;9.342;2023-08-24T06:30:20;7.25;;;5.40;;
21743;SDS011;11034;48.556;9.342;2023-08-24T06:33:07;8.38;;;4.82;;
21743;SDS011;11034;48.556;9.342;2023-08-24T06:36:05;7.60;;;5.10;;
21743;SDS011;11034;48.556;9.342;2023-08-24T06:39:00;6.90;;;4.50;;
21743;SDS011;11034;48.556;9.342;2023-08-24T06:47:08;9.52;;;6.00;;
21743;SDS011;11034;48.556;9.342;2023-08-24T07:05:23;8.85;;;6.38;;
21743;SDS011;11034;48.556;9.342;2023-08-24T07:07:58;9.30;;;6.35;;
21743;SDS011;11034;48.556;9.342;2023-08-24T07:10:38;9.55;;;6.68;;
21743;SDS011;11034;48.556;9.342;2023-08-24T07:13:07;11.00;;;6.47;;
21743;SDS011;11034;48.556;9.342;2023-08-24T07:15:35;10.15;;;6.90;;
21743;SDS011;11034;48.556;9.342;2023-08-24T07:18:04;13.52;;;7.78;;
21743;SDS011;11034;48.556;9.342;2023-08-24T07:20:35;13.05;;;7.63;;
21743;SDS011;11034;48.556;9.342;2023-08-24T07:23:04;13.23;;;7.57;;
21743;SDS011;11034;48.556;9.342;2023-08-24T07:25:32;13.18;;;8.32;;
21743;SDS011;11034;48.556;9.342;2023-08-24T07:28:00;10.07;;;7.75;;
21743;SDS011;11034;48.556;9.342;2023-08-24T07:30:30;10.40;;;8.13;;
21743;SDS011;11034;48.556;9.342;2023-08-24T07:33:00;11.52;;;7.85;;
21743;SDS011;11034;48.556;9.342;2023-08-24T07:35:29;11.43;;;7.00;;
21743;SDS011;11034;48.556;9.342;2023-08-24T07:37:59;9.35;;;6.97;;
21743;SDS011;11034;48.556;9.342;2023-08-24T07:40:28;11.10;;;5.50;;
21743;SDS011;11034;48.556;9.342;2023-08-24T07:42:56;10.77;;;5.28;;
21743;SDS011;11034;48.556;9.342;2023-08-24T07:45:24;8.57;;;5.15;;
21743;SDS011;11034;48.556;9.342;2023-08-24T07:47:53;7.95;;;5.13;;
21743;SDS011;11034;48.556;9.342;2023-08-24T07:50:21;11.68;;;5.90;;
21743;SDS011;11034;48.556;9.342;2023-08-24T07:52:50;7.70;;;5.30;;
21743;SDS011;11034;48.556;9.342;2023-08-24T07:55:24;8.10;;;5.70;;
21743;SDS011;11034;48.556;9.342;2023-08-24T07:57:52;9.00;;;5.55;;
21743;SDS011;11034;48.556;9.342;2023-08-24T08:00:20;8.30;;;5.18;;
21743;SDS011;11034;48.556;9.342;2023-08-24T08:02:49;12.30;;;5.18;;
21743;SDS011;11034;48.556;9.342;2023-08-24T08:05:18;9.85;;;5.00;;
21743;SDS011;11034;48.556;9.342;2023-08-24T08:07:46;8.85;;;4.90;;
21743;SDS011;11034;48.556;9.342;2023-08-24T08:10:15;9.52;;;4.65;;
21743;SDS011;11034;48.556;9.342;2023-08-24T08:12:45;5.95;;;4.20;;
21743;SDS011;11034;48.556;9.342;2023-08-24T08:15:13;7.15;;;4.13;;
21743;SDS011;11034;48.556;9.342;2023-08-24T08:17:41;8.30;;;4.60;;
21743;SDS011;11034;48.556;9.342;2023-08-24T08:20:09;9.70;;;4.72;;
21743;SDS011;11034;48.556;9.342;2023-08-24T08:22:38;6.15;;;4.70;;
21743;SDS011;11034;48.556;9.342;2023-08-24T08:25:06;8.35;;;4.60;;
21743;SDS011;11034;48.556;9.342;2023-08-24T08:27:35;9.30;;;4.97;;
21743;SDS011;11034;48.556;9.342;2023-08-24T08:30:05;8.20;;;4.95;;
21743;SDS011;11034;48.556;9.342;2023-08-24T08:32:34;9.98;;;5.03;;
21743;SDS011;11034;48.556;9.342;2023-08-24T08:35:03;9.00;;;4.55;;
21743;SDS011;11034;48.556;9.342;2023-08-24T08:37:32;8.18;;;4.88;;
21743;SDS011;11034;48.556;9.342;2023-08-24T08:40:00;6.88;;;4.55;;
21743;SDS011;11034;48.556;9.342;2023-08-24T08:42:32;7.72;;;4.53;;
21743;SDS011;11034;48.556;9.342;2023-08-24T08:45:01;7.05;;;4.43;;
21743;SDS011;11034;48.556;9.342;2023-08-24T08:47:33;9.23;;;5.03;;
21743;SDS011;11034;48.556;9.342;2023-08-24T08:50:01;10.50;;;4.95;;
21743;SDS011;11034;48.556;9.342;2023-08-24T08:52:31;8.07;;;5.30;;
21743;SDS011;11034;48.556;9.342;2023-08-24T08:55:00;6.18;;;4.63;;
21743;SDS011;11034;48.556;9.342;2023-08-24T08:57:39;8.20;;;5.35;;
21743;SDS011;11034;48.556;9.342;2023-08-24T09:00:09;8.90;;;4.93;;
21743;SDS011;11034;48.556;9.342;2023-08-24T09:02:42;10.30;;;4.63;;
21743;SDS011;11034;48.556;9.342;2023-08-24T09:05:11;8.13;;;4.97;;
21743;SDS011;11034;48.556;9.342;2023-08-24T09:07:40;7.45;;;5.13;;
21743;SDS011;11034;48.556;9.342;2023-08-24T09:10:09;8.05;;;5.07;;
21743;SDS011;11034;48.556;9.342;2023-08-24T09:12:37;8.15;;;5.00;;
21743;SDS011;11034;48.556;9.342;2023-08-24T09:15:05;8.90;;;5.10;;
21743;SDS011;11034;48.556;9.342;2023-08-24T09:17:34;8.52;;;4.95;;
21743;SDS011;11034;48.556;9.342;2023-08-24T09:20:07;8.27;;;4.80;;
21743;SDS011;11034;48.556;9.342;2023-08-24T09:22:36;8.60;;;4.82;;
21743;SDS011;11034;48.556;9.342;2023-08-24T09:25:09;8.30;;;4.82;;
21743;SDS011;11034;48.556;9.342;2023-08-24T09:27:40;8.75;;;4.68;;
21743;SDS011;11034;48.556;9.342;2023-08-24T09:30:09;5.93;;;4.65;;
21743;SDS011;11034;48.556;9.342;2023-08-24T09:32:38;10.45;;;5.53;;
21743;SDS011;11034;48.556;9.342;2023-08-24T09:35:09;8.73;;;4.95;;
21743;SDS011;11034;48.556;9.342;2023-08-24T09:37:37;12.18;;;5.10;;
21743;SDS011;11034;48.556;9.342;2023-08-24T09:40:06;8.25;;;5.50;;
21743;SDS011;11034;48.556;9.342;2023-08-24T09:42:38;10.60;;;5.40;;
21743;SDS011;11034;48.556;9.342;2023-08-24T09:45:10;12.63;;;5.70;;
21743;SDS011;11034;48.556;9.342;2023-08-24T09:47:44;8.05;;;5.72;;
21743;SDS011;11034;48.556;9.342;2023-08-24T09:50:15;12.27;;;5.18;;
21743;SDS011;11034;48.556;9.342;2023-08-24T09:52:44;10.88;;;5.22;;
21743;SDS011;11034;48.556;9.342;2023-08-24T09:55:15;9.00;;;5.40;;
21743;SDS011;11034;48.556;9.342;2023-08-24T09:57:48;11.00;;;5.80;;
21743;SDS011;11034;48.556;9.342;2023-08-24T10:00:23;7.32;;;5.50;;
21743;SDS011;11034;48.556;9.342;2023-08-24T10:02:53;9.13;;;5.28;;
21743;SDS011;11034;48.556;9.342;2023-08-24T10:05:24;9.85;;;6.20;;
21743;SDS011;11034;48.556;9.342;2023-08-24T10:08:10;10.88;;;5.93;;
21743;SDS011;11034;48.556;9.342;2023-08-24T10:10:40;7.75;;;5.72;;
21743;SDS011;11034;48.556;9.342;2023-08-24T10:13:11;10.40;;;5.80;;
21743;SDS011;11034;48.556;9.342;2023-08-24T10:15:46;9.80;;;6.03;;
21743;SDS011;11034;48.556;9.342;2023-08-24T10:18:18;12.77;;;5.60;;
21743;SDS011;11034;48.556;9.342;2023-08-24T10:20:48;7.97;;;5.93;;
21743;SDS011;11034;48.556;9.342;2023-08-24T10:23:17;9.73;;;6.25;;
21743;SDS011;11034;48.556;9.342;2023-08-24T10:25:47;9.48;;;5.95;;
21743;SDS011;11034;48.556;9.342;2023-08-24T10:28:19;8.15;;;5.72;;
21743;SDS011;11034;48.556;9.342;2023-08-24T10:30:48;9.23;;;5.53;;
21743;SDS011;11034;48.556;9.342;2023-08-24T10:33:17;9.80;;;5.93;;
21743;SDS011;11034;48.556;9.342;2023-08-24T10:35:48;10.02;;;6.15;;
21743;SDS011;11034;48.556;9.342;2023-08-24T10:38:22;9.52;;;6.22;;
21743;SDS011;11034;48.556;9.342;2023-08-24T10:40:52;16.65;;;6.25;;
21743;SDS011;11034;48.556;9.342;2023-08-24T10:43:21;9.77;;;5.80;;
21743;SDS011;11034;48.556;9.342;2023-08-24T10:45:57;13.35;;;6.03;;
21743;SDS011;11034;48.556;9.342;2023-08-24T10:48:27;10.32;;;6.00;;
21743;SDS011;11034;48.556;9.342;2023-08-24T10:53:51;11.82;;;6.10;;
21743;SDS011;11034;48.556;9.342;2023-08-24T10:56:20;9.32;;;5.80;;
21743;SDS011;11034;48.556;9.342;2023-08-24T11:01:43;11.10;;;6.30;;
21743;SDS011;11034;48.556;9.342;2023-08-24T11:04:21;12.73;;;6.25;;
21743;SDS011;11034;48.556;9.342;2023-08-24T11:06:52;10.57;;;5.75;;
21743;SDS011;11034;48.556;9.342;2023-08-24T11:09:21;9.35;;;6.50;;
21743;SDS011;11034;48.556;9.342;2023-08-24T11:11:57;7.05;;;5.85;;
21743;SDS011;11034;48.556;9.342;2023-08-24T11:14:26;11.52;;;6.30;;
21743;SDS011;11034;48.556;9.342;2023-08-24T11:16:57;9.75;;;6.20;;
21743;SDS011;11034;48.556;9.342;2023-08-24T11:19:27;10.00;;;5.85;;
21743;SDS011;11034;48.556;9.342;2023-08-24T11:21:58;11.82;;;5.72;;
21743;SDS011;11034;48.556;9.342;2023-08-24T11:24:26;10.32;;;5.80;;
21743;SDS011;11034;48.556;9.342;2023-08-24T11:26:55;8.77;;;5.78;;
21743;SDS011;11034;48.556;9.342;2023-08-24T11:29:27;10.90;;;5.80;;
21743;SDS011;11034;48.556;9.342;2023-08-24T11:31:55;10.77;;;5.50;;
21743;SDS011;11034;48.556;9.342;2023-08-24T11:34:25;11.55;;;5.78;;
21743;SDS011;11034;48.556;9.342;2023-08-24T11:36:53;16.27;;;6.53;;
21743;SDS011;11034;48.556;9.342;2023-08-24T11:39:23;12.15;;;6.32;;
21743;SDS011;11034;48.556;9.342;2023-08-24T11:41:59;12.95;;;6.68;;
21743;SDS011;11034;48.556;9.342;2023-08-24T11:44:44;12.90;;;6.40;;
21743;SDS011;11034;48.556;9.342;2023-08-24T11:47:13;16.48;;;6.00;;
21743;SDS011;11034;48.556;9.342;2023-08-24T11:49:41;13.90;;;6.28;;
21743;SDS011;11034;48.556;9.342;2023-08-24T11:52:09;13.02;;;6.18;;
21743;SDS011;11034;48.556;9.342;2023-08-24T11:54:39;16.13;;;6.18;;
21743;SDS011;11034;48.556;9.342;2023-08-24T11:57:09;16.15;;;5.95;;
21743;SDS011;11034;48.556;9.342;2023-08-24T11:59:40;13.60;;;6.28;;
21743;SDS011;11034;48.556;9.342;2023-08-24T12:02:09;11.93;;;6.05;;
21743;SDS011;11034;48.556;9.342;2023-08-24T12:04:38;10.40;;;5.45;;
21743;SDS011;11034;48.556;9.342;2023-08-24T12:07:10;18.85;;;5.72;;
21743;SDS011;11034;48.556;9.342;2023-08-24T12:09:41;13.60;;;5.93;;
21743;SDS011;11034;48.556;9.342;2023-08-24T12:12:12;14.02;;;5.72;;
21743;SDS011;11034;48.556;9.342;2023-08-24T12:14:41;11.98;;;5.35;;
21743;SDS011;11034;48.556;9.342;2023-08-24T12:17:11;12.85;;;5.50;;
21743;SDS011;11034;48.556;9.342;2023-08-24T12:19:41;16.15;;;5.60;;
21743;SDS011;11034;48.556;9.342;2023-08-24T12:22:12;9.70;;;5.28;;
21743;SDS011;11034;48.556;9.342;2023-08-24T12:24:44;12.88;;;5.28;;
21743;SDS011;11034;48.556;9.342;2023-08-24T12:27:19;14.10;;;5.55;;
21743;SDS011;11034;48.556;9.342;2023-08-24T12:29:47;13.27;;;4.70;;
21743;SDS011;11034;48.556;9.342;2023-08-24T12:32:16;16.77;;;5.68;;
21743;SDS011;11034;48.556;9.342;2023-08-24T12:34:50;12.88;;;5.50;;
21743;SDS011;11034;48.556;9.342;2023-08-24T12:37:21;9.85;;;5.65;;
21743;SDS011;11034;48.556;9.342;2023-08-24T12:39:51;15.10;;;5.05;;
21743;SDS011;11034;48.556;9.342;2023-08-24T12:42:21;20.35;;;5.10;;
21743;SDS011;11034;48.556;9.342;2023-08-24T12:44:49;13.98;;;5.85;;
21743;SDS011;11034;48.556;9.342;2023-08-24T12:47:18;16.20;;;5.63;;
21743;SDS011;11034;48.556;9.342;2023-08-24T12:49:46;12.43;;;5.28;;
21743;SDS011;11034;48.556;9.342;2023-08-24T12:52:14;15.02;;;5.15;;
21743;SDS011;11034;48.556;9.342;2023-08-24T12:54:43;17.67;;;5.10;;
21743;SDS011;11034;48.556;9.342;2023-08-24T12:57:12;14.32;;;5.15;;
21743;SDS011;11034;48.556;9.342;2023-08-24T12:59:40;12.00;;;4.72;;
21743;SDS011;11034;48.556;9.342;2023-08-24T13:02:08;15.30;;;5.47;;
21743;SDS011;11034;48.556;9.342;2023-08-24T13:04:50;21.33;;;5.13;;
21743;SDS011;11034;48.556;9.342;2023-08-24T13:07:18;14.15;;;5.25;;
21743;SDS011;11034;48.556;9.342;2023-08-24T13:09:46;15.10;;;4.85;;
21743;SDS011;11034;48.556;9.342;2023-08-24T13:12:15;14.23;;;5.03;;
21743;SDS011;11034;48.556;9.342;2023-08-24T13:14:44;14.90;;;4.97;;
21743;SDS011;11034;48.556;9.342;2023-08-24T13:17:12;12.13;;;4.82;;
21743;SDS011;11034;48.556;9.342;2023-08-24T13:19:40;14.32;;;5.13;;
21743;SDS011;11034;48.556;9.342;2023-08-24T13:22:08;13.30;;;4.82;;
21743;SDS011;11034;48.556;9.342;2023-08-24T13:24:36;14.20;;;5.30;;
21743;SDS011;11034;48.556;9.342;2023-08-24T13:27:06;9.52;;;5.15;;
21743;SDS011;11034;48.556;9.342;2023-08-24T13:29:38;17.70;;;5.82;;
21743;SDS011;11034;48.556;9.342;2023-08-24T13:32:06;21.55;;;5.45;;
21743;SDS011;11034;48.556;9.342;2023-08-24T13:34:35;12.40;;;5.13;;
21743;SDS011;11034;48.556;9.342;2023-08-24T13:37:04;14.50;;;5.38;;
21743;SDS011;11034;48.556;9.342;2023-08-24T13:39:32;12.93;;;5.65;;
21743;SDS011;11034;48.556;9.342;2023-08-24T13:42:01;13.60;;;5.55;;
21743;SDS011;11034;48.556;9.342;2023-08-24T13:44:31;12.27;;;5.18;;
21743;SDS011;11034;48.556;9.342;2023-08-24T13:47:01;12.02;;;5.43;;
21743;SDS011;11034;48.556;9.342;2023-08-24T13:49:30;18.85;;;5.90;;
21743;SDS011;11034;48.556;9.342;2023-08-24T13:52:06;13.65;;;5.07;;
21743;SDS011;11034;48.556;9.342;2023-08-24T13:54:34;14.90;;;5.50;;
21743;SDS011;11034;48.556;9.342;2023-08-24T13:57:03;15.80;;;5.47;;
21743;SDS011;11034;48.556;9.342;2023-08-24T13:59:32;8.68;;;5.30;;
21743;SDS011;11034;48.556;9.342;2023-08-24T14:02:01;18.13;;;5.53;;
21743;SDS011;11034;48.556;9.342;2023-08-24T14:04:30;16.85;;;5.72;;
21743;SDS011;11034;48.556;9.342;2023-08-24T14:07:02;14.48;;;5.50;;
21743;SDS011;11034;48.556;9.342;2023-08-24T14:09:30;12.25;;;5.93;;
21743;SDS011;11034;48.556;9.342;2023-08-24T14:11:59;15.00;;;5.65;;
21743;SDS011;11034;48.556;9.342;2023-08-24T14:14:29;11.25;;;5.70;;
21743;SDS011;11034;48.556;9.342;2023-08-24T14:16:58;17.08;;;5.63;;
21743;SDS011;11034;48.556;9.342;2023-08-24T14:19:28;15.20;;;5.88;;
21743;SDS011;11034;48.556;9.342;2023-08-24T14:21:56;18.48;;;5.57;;
21743;SDS011;11034;48.556;9.342;2023-08-24T14:24:24;11.85;;;5.63;;
21743;SDS011;11034;48.556;9.342;2023-08-24T14:26:54;13.05;;;5.60;;
21743;SDS011;11034;48.556;9.342;2023-08-24T14:29:22;13.98;;;5.75;;
21743;SDS011;11034;48.556;9.342;2023-08-24T14:31:50;16.10;;;6.05;;
21743;SDS011;11034;48.556;9.342;2023-08-24T14:34:19;16.40;;;5.68;;
21743;SDS011;11034;48.556;9.342;2023-08-24T14:36:48;13.85;;;5.78;;
21743;SDS011;11034;48.556;9.342;2023-08-24T14:39:16;13.23;;;5.70;;
21743;SDS011;11034;48.556;9.342;2023-08-24T14:41:45;15.70;;;5.53;;
21743;SDS011;11034;48.556;9.342;2023-08-24T14:44:13;16.33;;;6.18;;
21743;SDS011;11034;48.556;9.342;2023-08-24T14:46:41;13.82;;;5.65;;
21743;SDS011;11034;48.556;9.342;2023-08-24T14:49:11;15.75;;;5.70;;
21743;SDS011;11034;48.556;9.342;2023-08-24T14:51:46;16.13;;;5.68;;
21743;SDS011;11034;48.556;9.342;2023-08-24T14:54:16;15.48;;;6.10;;
21743;SDS011;11034;48.556;9.342;2023-08-24T14:56:44;15.90;;;7.13;;
21743;SDS011;11034;48.556;9.342;2023-08-24T14:59:12;12.23;;;5.82;;
21743;SDS011;11034;48.556;9.342;2023-08-24T15:01:41;13.60;;;6.47;;
21743;SDS011;11034;48.556;9.342;2023-08-24T15:04:09;17.27;;;5.97;;
21743;SDS011;11034;48.556;9.342;2023-08-24T15:06:37;21.50;;;6.20;;
21743;SDS011;11034;48.556;9.342;2023-08-24T15:09:06;14.50;;;5.78;;
21743;SDS011;11034;48.556;9.342;2023-08-24T15:11:34;12.95;;;6.10;;
21743;SDS011;11034;48.556;9.342;2023-08-24T15:14:03;14.13;;;6.18;;
21743;SDS011;11034;48.556;9.342;2023-08-24T15:16:31;13.52;;;6.65;;
21743;SDS011;11034;48.556;9.342;2023-08-24T15:18:59;16.23;;;6.13;;
21743;SDS011;11034;48.556;9.342;2023-08-24T15:21:27;14.20;;;5.38;;
21743;SDS011;11034;48.556;9.342;2023-08-24T15:23:55;15.75;;;5.97;;
21743;SDS011;11034;48.556;9.342;2023-08-24T15:26:25;11.90;;;5.53;;
21743;SDS011;11034;48.556;9.342;2023-08-24T15:29:10;13.07;;;5.18;;
21743;SDS011;11034;48.556;9.342;2023-08-24T15:31:41;14.68;;;5.13;;
21743;SDS011;11034;48.556;9.342;2023-08-24T15:34:09;17.10;;;5.68;;
21743;SDS011;11034;48.556;9.342;2023-08-24T15:36:37;13.45;;;5.20;;
21743;SDS011;11034;48.556;9.342;2023-08-24T15:39:06;20.80;;;6.25;;
21743;SDS011;11034;48.556;9.342;2023-08-24T15:41:35;15.52;;;5.70;;
21743;SDS011;11034;48.556;9.342;2023-08-24T15:44:03;18.77;;;6.13;;
21743;SDS011;11034;48.556;9.342;2023-08-24T15:46:32;12.90;;;5.90;;
21743;SDS011;11034;48.556;9.342;2023-08-24T15:49:00;9.75;;;4.95;;
21743;SDS011;11034;48.556;9.342;2023-08-24T15:51:28;15.77;;;5.40;;
21743;SDS011;11034;48.556;9.342;2023-08-24T15:53:56;11.10;;;4.70;;